Time;durP1;ratioP1;P1;durP2;ratioP2;P2;SDS_P1;SDS_P2;PMS_P1;PMS_P2;Temp;Humidity;BMP_temperature;BMP_pressure;BME280_temperature;BME280_humidity;BME280_pressure;Samples;Min_cycle;Max_cycle;Signal;HPM_P1;HPM_P2
2022/05/17 00:00:11;;;;;;;9.63;5.97;;;;;;;16.80;67.07;99276.03;4441603;32;34483;-70
2022/05/17 00:02:39;;;;;;;10.70;5.75;;;;;;;16.69;67.42;99273.81;4446520;32;32619;-70
2022/05/17 00:05:08;;;;;;;10.50;5.50;;;;;;;15.61;71.84;99272.25;4455720;32;34109;-71
2022/05/17 00:07:37;;;;;;;9.23;5.50;;;;;;;14.96;74.89;99266.41;4469829;32;35047;-71
2022/05/17 00:10:06;;;;;;;11.10;6.55;;;;;;;15.86;71.41;99266.22;4457146;32;34530;-71
2022/05/17 00:12:34;;;;;;;8.48;6.50;;;;;;;15.31;72.99;99256.56;4469309;32;34372;-71
2022/05/17 00:15:03;;;;;;;12.13;6.28;;;;;;;14.85;75.93;99251.88;4444196;32;34034;-70
2022/05/17 00:17:32;;;;;;;11.57;6.95;;;;;;;15.15;74.61;99252.72;4455742;32;35067;-70
2022/05/17 00:20:00;;;;;;;11.27;6.32;;;;;;;15.10;74.75;99249.38;4470957;32;34536;-70
2022/05/17 00:22:27;;;;;;;11.55;5.82;;;;;;;15.20;74.52;99260.44;4461845;32;33457;-71
2022/05/17 00:24:55;;;;;;;9.07;6.32;;;;;;;15.65;73.00;99252.88;4449238;32;33965;-76
2022/05/17 00:27:23;;;;;;;10.25;6.55;;;;;;;16.30;70.24;99245.44;4456827;32;35018;-70
2022/05/17 00:29:51;;;;;;;9.45;6.43;;;;;;;15.77;71.50;99251.63;4456672;32;34501;-70
2022/05/17 00:32:19;;;;;;;8.85;5.75;;;;;;;16.64;68.20;99245.06;4439036;32;34443;-70
2022/05/17 00:34:48;;;;;;;11.95;6.47;;;;;;;15.94;69.92;99243.19;4438647;32;33899;-70
2022/05/17 00:37:16;;;;;;;9.57;5.90;;;;;;;16.39;69.10;99236.34;4437138;32;35035;-73
2022/05/17 00:39:44;;;;;;;9.65;6.32;;;;;;;15.18;73.23;99242.12;4438519;32;34487;-70
2022/05/17 00:42:12;;;;;;;9.32;5.60;;;;;;;15.91;71.21;99243.28;4437413;32;33023;-70
2022/05/17 00:44:43;;;;;;;11.77;6.65;;;;;;;16.44;68.52;99235.28;4438643;32;33175;-70
2022/05/17 00:47:18;;;;;;;11.73;7.07;;;;;;;16.44;68.56;99237.06;4438532;32;35045;-71
2022/05/17 00:49:50;;;;;;;10.23;5.57;;;;;;;16.15;69.54;99245.97;4438860;32;35315;-70
2022/05/17 00:52:27;;;;;;;13.27;6.30;;;;;;;16.02;69.77;99240.28;4438705;32;33483;-70
2022/05/17 00:54:59;;;;;;;10.60;6.28;;;;;;;15.09;74.30;99243.28;4438808;32;34773;-70
2022/05/17 00:57:42;;;;;;;14.27;6.28;;;;;;;15.36;74.22;99238.91;4438682;32;34807;-70
2022/05/17 01:00:13;;;;;;;11.23;6.10;;;;;;;16.15;70.84;99235.44;4439562;32;34624;-70
2022/05/17 01:02:46;;;;;;;13.55;6.10;;;;;;;15.88;71.08;99225.88;4437449;32;33356;-76
2022/05/17 01:05:16;;;;;;;10.30;6.70;;;;;;;15.45;72.61;99234.28;4439532;32;33853;-70
2022/05/17 01:07:48;;;;;;;12.05;6.37;;;;;;;15.19;73.59;99227.25;4436237;32;34216;-72
2022/05/17 01:10:16;;;;;;;9.38;5.93;;;;;;;15.18;74.56;99226.41;4425824;32;32966;-70
2022/05/17 01:14:57;;;;;;;9.02;5.97;;;;;;;15.36;74.06;99215.31;4436201;32;34390;-70
2022/05/17 01:15:32;;;;;;;9.82;6.15;;;;;;;16.15;70.76;99224.94;4439474;32;34026;-70
2022/05/17 01:18:00;;;;;;;9.40;6.15;;;;;;;16.24;70.50;99220.25;4437316;32;35873;-70
2022/05/17 01:20:28;;;;;;;8.13;5.47;;;;;;;16.28;70.63;99220.97;4432830;32;35287;-70
2022/05/17 01:22:56;;;;;;;10.55;5.90;;;;;;;16.41;69.71;99216.13;4430075;32;33770;-71
2022/05/17 01:25:24;;;;;;;7.85;5.62;;;;;;;16.43;70.24;99211.66;4439687;32;34704;-70
2022/05/17 01:27:57;;;;;;;7.18;5.50;;;;;;;16.53;70.05;99220.09;4438431;32;35115;-70
2022/05/17 01:30:27;;;;;;;9.32;5.40;;;;;;;16.27;71.19;99216.63;4445297;32;34446;-70
2022/05/17 01:32:55;;;;;;;11.32;5.82;;;;;;;16.09;72.33;99216.41;4454940;32;34132;-70
2022/05/17 01:35:23;;;;;;;10.82;5.85;;;;;;;16.50;70.87;99221.06;4470474;32;33765;-70
2022/05/17 01:37:54;;;;;;;8.70;5.75;;;;;;;16.57;70.78;99212.03;4454819;32;35029;-70
2022/05/17 01:40:23;;;;;;;9.18;5.53;;;;;;;16.51;71.57;99203.53;4463421;32;35318;-71
2022/05/17 01:42:52;;;;;;;10.25;6.05;;;;;;;16.54;71.94;99211.31;4444082;32;33124;-71
2022/05/17 01:45:20;;;;;;;12.73;6.18;;;;;;;16.85;70.55;99214.50;4456485;32;34795;-70
2022/05/17 01:47:48;;;;;;;7.80;5.53;;;;;;;16.70;70.78;99207.16;4464896;32;35045;-77
2022/05/17 01:50:17;;;;;;;9.27;6.00;;;;;;;16.49;72.04;99209.69;4454028;32;33816;-71
2022/05/17 01:52:45;;;;;;;9.13;5.53;;;;;;;16.74;71.50;99208.75;4454837;32;34275;-71
2022/05/17 01:55:13;;;;;;;9.70;6.25;;;;;;;17.02;70.79;99202.47;4470287;32;33885;-70
2022/05/17 01:57:41;;;;;;;9.20;5.97;;;;;;;16.97;71.16;99204.41;4454822;32;36002;-71
2022/05/17 02:00:12;;;;;;;7.97;5.65;;;;;;;17.02;70.83;99203.31;4454121;32;33681;-73
2022/05/17 02:02:40;;;;;;;11.12;6.18;;;;;;;17.16;70.98;99208.03;4455123;32;33588;-70
2022/05/17 02:05:14;;;;;;;8.23;5.90;;;;;;;16.91;71.48;99208.16;4463545;32;33766;-76
2022/05/17 02:07:43;;;;;;;13.00;6.18;;;;;;;17.21;71.26;99203.44;4456313;32;34742;-70
2022/05/17 02:10:11;;;;;;;10.18;5.85;;;;;;;16.49;74.74;99204.41;4449850;32;35219;-71
2022/05/17 02:12:39;;;;;;;7.75;5.55;;;;;;;16.41;74.93;99201.25;4441670;32;33722;-70
2022/05/17 02:15:08;;;;;;;11.23;5.55;;;;;;;17.03;72.28;99188.41;4456246;32;34854;-77
2022/05/17 02:17:36;;;;;;;10.73;5.80;;;;;;;16.84;71.56;99194.38;4454342;32;35759;-70
2022/05/17 02:20:06;;;;;;;7.50;5.47;;;;;;;17.15;70.04;99189.69;4456014;32;35135;-77
2022/05/17 02:22:34;;;;;;;9.35;5.60;;;;;;;17.37;71.15;99198.41;4468182;32;33455;-76
2022/05/17 02:25:02;;;;;;;7.90;5.15;;;;;;;17.54;71.17;99195.09;4464749;32;33858;-76
2022/05/17 02:27:31;;;;;;;10.30;5.30;;;;;;;17.84;69.67;99191.22;4452618;32;35778;-72
2022/05/17 02:29:58;;;;;;;9.80;5.87;;;;;;;17.75;68.94;99185.44;4455748;32;34636;-76
2022/05/17 02:32:27;;;;;;;7.35;5.30;;;;;;;18.06;68.19;99191.19;4455201;32;33306;-76
2022/05/17 02:34:55;;;;;;;7.50;5.40;;;;;;;18.03;69.34;99197.44;4440487;32;33914;-76
2022/05/17 02:37:22;;;;;;;8.63;5.40;;;;;;;17.44;71.68;99194.63;4454283;32;35095;-77
2022/05/17 02:39:50;;;;;;;11.75;5.85;;;;;;;18.15;69.48;99194.25;4469383;32;34776;-70
2022/05/17 02:42:19;;;;;;;9.35;5.57;;;;;;;17.56;70.95;99198.53;4449331;32;33450;-77
2022/05/17 02:44:48;;;;;;;11.07;6.15;;;;;;;17.27;71.82;99201.50;4453235;32;35934;-77
2022/05/17 02:47:16;;;;;;;8.70;5.93;;;;;;;17.49;71.37;99206.72;4454034;32;35055;-76
2022/05/17 02:49:45;;;;;;;8.18;5.00;;;;;;;17.52;73.42;99203.97;4466669;32;35045;-77
2022/05/17 02:52:14;;;;;;;9.38;5.95;;;;;;;17.53;71.79;99209.19;4469237;32;33469;-71
2022/05/17 02:54:41;;;;;;;9.20;5.72;;;;;;;17.62;71.68;99206.16;4448015;32;33927;-74
2022/05/17 02:57:10;;;;;;;7.35;5.40;;;;;;;17.54;71.49;99199.50;4455498;32;35754;-70
2022/05/17 02:59:38;;;;;;;10.60;5.53;;;;;;;18.31;68.28;99204.97;4466778;32;35101;-76
2022/05/17 03:02:06;;;;;;;11.12;5.65;;;;;;;17.40;71.67;99213.22;4455744;32;33746;-76
2022/05/17 03:04:34;;;;;;;8.35;5.65;;;;;;;16.89;73.32;99232.78;4467934;32;33651;-71
2022/05/17 03:07:02;;;;;;;10.73;5.75;;;;;;;17.62;68.16;99229.00;4469407;32;35167;-71
2022/05/17 03:09:30;;;;;;;7.78;5.25;;;;;;;18.22;67.33;99228.28;4456614;32;34556;-70
2022/05/17 03:11:58;;;;;;;8.63;5.80;;;;;;;18.34;68.85;99233.84;4453480;32;32264;-69
2022/05/17 03:14:26;;;;;;;10.90;6.30;;;;;;;18.05;69.38;99229.00;4464502;32;34608;-76
2022/05/17 03:16:53;;;;;;;9.40;5.90;;;;;;;18.25;67.24;99228.12;4469080;32;35057;-69
2022/05/17 03:19:22;;;;;;;10.82;5.62;;;;;;;18.29;64.95;99222.66;4441294;32;34503;-73
2022/05/17 03:21:50;;;;;;;9.52;5.45;;;;;;;18.25;66.73;99229.00;4440750;32;33522;-70
2022/05/17 03:24:18;;;;;;;12.18;5.47;;;;;;;18.49;64.16;99232.28;4460235;32;34548;-70
2022/05/17 03:27:06;;;;;;;8.52;5.15;;;;;;;18.69;62.82;99233.19;4453506;32;36033;-70
2022/05/17 03:29:34;;;;;;;9.75;5.20;;;;;;;19.24;60.92;99240.34;4450659;32;35085;-70
2022/05/17 03:32:02;;;;;;;8.65;5.35;;;;;;;19.03;60.12;99239.56;4468768;32;33469;-77
2022/05/17 03:34:31;;;;;;;8.95;5.57;;;;;;;19.35;60.05;99238.03;4453189;32;33934;-70
2022/05/17 03:37:00;;;;;;;7.80;5.53;;;;;;;19.18;60.37;99238.81;4439743;32;34621;-69
2022/05/17 03:39:28;;;;;;;9.18;6.20;;;;;;;19.94;57.41;99236.03;4437564;32;33878;-70
2022/05/17 03:41:56;;;;;;;10.90;5.00;;;;;;;20.00;57.53;99245.44;4453522;32;33297;-70
2022/05/17 03:44:24;;;;;;;9.48;5.25;;;;;;;19.70;59.38;99253.94;4455473;32;34684;-69
2022/05/17 03:46:52;;;;;;;9.40;5.00;;;;;;;20.08;56.71;99238.81;4453306;32;35651;-70
2022/05/17 03:49:20;;;;;;;7.35;4.53;;;;;;;20.01;57.59;99241.84;4439179;32;34232;-69
2022/05/17 03:51:48;;;;;;;7.05;4.80;;;;;;;19.89;60.36;99240.69;4456153;32;34553;-69
2022/05/17 03:54:19;;;;;;;8.73;4.95;;;;;;;20.11;60.30;99237.78;4452767;32;34028;-69
2022/05/17 03:56:47;;;;;;;9.25;4.87;;;;;;;19.83;57.89;99230.41;4440213;32;35134;-70
2022/05/17 03:59:15;;;;;;;9.02;6.22;;;;;;;19.96;57.52;99235.94;4438519;32;33279;-70
2022/05/17 04:01:44;;;;;;;11.32;5.72;;;;;;;20.02;57.53;99232.97;4451325;32;33084;-70
2022/05/17 04:04:12;;;;;;;8.55;5.28;;;;;;;20.44;55.08;99221.09;4443139;32;34835;-69
2022/05/17 04:06:40;;;;;;;11.98;5.40;;;;;;;20.04;56.66;99229.31;4452772;32;35178;-71
2022/05/17 04:09:08;;;;;;;7.85;4.82;;;;;;;19.98;56.99;99229.66;4453815;32;34797;-76
2022/05/17 04:11:36;;;;;;;11.30;5.20;;;;;;;20.35;55.43;99232.19;4439743;32;32758;-71
2022/05/17 04:14:05;;;;;;;15.55;5.87;;;;;;;20.57;53.85;99235.34;4441483;32;34047;-69
2022/05/17 04:16:35;;;;;;;69.05;9.43;;;;;;;20.56;54.19;99228.38;4439921;32;34655;-72
2022/05/17 04:19:04;;;;;;;42.38;8.10;;;;;;;20.77;55.06;99230.81;4442367;32;34058;-77
2022/05/17 04:21:33;;;;;;;13.07;5.20;;;;;;;20.57;56.94;99230.06;4453670;32;34368;-71
2022/05/17 04:24:01;;;;;;;16.58;4.80;;;;;;;20.29;58.01;99235.12;4429137;32;33085;-70
2022/05/17 04:26:29;;;;;;;8.13;4.60;;;;;;;20.74;55.28;99215.13;4453559;32;36001;-74
2022/05/17 04:28:57;;;;;;;7.72;5.00;;;;;;;21.04;53.48;99223.16;4453565;32;34105;-75
2022/05/17 04:31:25;;;;;;;8.50;5.40;;;;;;;20.87;53.91;99231.19;4440706;32;33507;-70
2022/05/17 04:33:54;;;;;;;11.70;5.50;;;;;;;21.21;53.37;99232.78;4453563;32;33974;-70
2022/05/17 04:36:22;;;;;;;14.52;6.00;;;;;;;21.32;53.48;99221.63;4453578;32;35143;-71
2022/05/17 04:38:50;;;;;;;9.23;5.70;;;;;;;21.44;53.41;99226.19;4454765;32;34556;-72
2022/05/17 04:41:19;;;;;;;9.27;5.72;;;;;;;21.09;54.99;99222.87;4441583;32;33684;-75
2022/05/17 04:43:50;;;;;;;11.30;5.53;;;;;;;20.68;56.35;99220.75;4458200;32;33775;-76
2022/05/17 04:46:21;;;;;;;11.65;5.50;;;;;;;20.82;56.33;99223.47;4468930;32;36018;-70
2022/05/17 04:48:49;;;;;;;8.73;5.47;;;;;;;21.18;55.29;99228.53;4453020;32;34351;-71
2022/05/17 04:51:17;;;;;;;10.75;5.85;;;;;;;20.72;56.86;99232.84;4468768;32;33642;-77
2022/05/17 04:53:45;;;;;;;11.82;6.57;;;;;;;20.72;57.24;99232.84;4465311;32;33881;-70
2022/05/17 04:56:19;;;;;;;10.13;6.00;;;;;;;20.51;57.01;99235.72;4453961;32;35138;-71
2022/05/17 04:58:47;;;;;;;11.00;5.47;;;;;;;20.26;60.39;99230.87;4443776;32;34470;-74
2022/05/17 05:01:15;;;;;;;8.82;6.12;;;;;;;20.70;60.47;99234.72;4456282;32;33470;-77
2022/05/17 05:03:43;;;;;;;10.30;5.80;;;;;;;20.77;57.77;99241.41;4468859;32;33903;-70
2022/05/17 05:06:11;;;;;;;11.12;7.70;;;;;;;20.71;57.35;99231.16;4464349;32;35872;-70
2022/05/17 05:08:39;;;;;;;13.55;7.62;;;;;;;21.27;55.59;99232.47;4456812;32;34434;-71
2022/05/17 05:11:08;;;;;;;10.05;5.78;;;;;;;21.25;55.35;99231.69;4456509;32;33329;-71
2022/05/17 05:13:36;;;;;;;9.80;5.95;;;;;;;21.61;54.30;99227.91;4468174;32;34037;-70
2022/05/17 05:16:09;;;;;;;10.90;6.47;;;;;;;21.53;55.01;99225.72;4456380;32;34935;-77
2022/05/17 05:18:40;;;;;;;8.98;6.37;;;;;;;21.20;55.75;99239.03;4468965;32;35263;-74
2022/05/17 05:21:14;;;;;;;11.35;6.62;;;;;;;20.94;55.87;99232.53;4446591;32;33359;-72
2022/05/17 05:23:43;;;;;;;9.73;7.22;;;;;;;21.61;54.58;99235.84;4442363;32;33847;-72
2022/05/17 05:26:13;;;;;;;11.30;6.57;;;;;;;21.42;55.38;99235.16;4456444;32;35871;-71
2022/05/17 05:28:42;;;;;;;10.02;6.45;;;;;;;21.45;55.76;99237.66;4455015;32;34439;-74
2022/05/17 05:31:17;;;;;;;10.43;6.47;;;;;;;21.31;56.33;99238.44;4440889;32;33930;-71
2022/05/17 05:33:45;;;;;;;10.88;6.80;;;;;;;21.15;57.02;99238.44;4442419;32;32519;-71
2022/05/17 05:36:13;;;;;;;9.93;7.25;;;;;;;20.89;57.71;99237.25;4450303;32;35834;-71
2022/05/17 05:38:42;;;;;;;10.77;7.03;;;;;;;21.17;57.25;99239.22;4460521;32;35280;-71
2022/05/17 05:41:12;;;;;;;9.48;6.45;;;;;;;21.75;55.36;99233.25;4470206;32;34077;-70
2022/05/17 05:43:40;;;;;;;13.52;7.20;;;;;;;21.25;57.44;99234.34;4468544;32;34609;-70
2022/05/17 05:46:08;;;;;;;15.82;7.37;;;;;;;21.82;56.02;99235.56;4456255;32;34701;-70
2022/05/17 05:48:36;;;;;;;10.98;6.18;;;;;;;21.83;55.62;99234.59;4456803;32;34505;-75
2022/05/17 05:51:07;;;;;;;10.25;5.85;;;;;;;21.85;56.01;99230.03;4470178;32;33580;-70
2022/05/17 05:53:35;;;;;;;10.57;5.78;;;;;;;21.70;56.29;99224.72;4455016;32;34770;-77
2022/05/17 05:56:05;;;;;;;12.23;5.35;;;;;;;21.72;56.49;99236.06;4453201;32;36020;-79
2022/05/17 05:58:36;;;;;;;9.68;5.70;;;;;;;21.55;57.52;99239.72;4468649;32;33575;-77
2022/05/17 06:01:04;;;;;;;13.45;5.68;;;;;;;21.71;58.06;99239.69;4470118;32;33576;-78
2022/05/17 06:03:35;;;;;;;9.38;6.25;;;;;;;21.28;59.77;99236.78;4469227;32;33844;-79
2022/05/17 06:06:04;;;;;;;11.15;6.30;;;;;;;21.32;59.22;99248.94;4455929;32;34323;-79
2022/05/17 06:08:32;;;;;;;10.27;6.15;;;;;;;21.91;57.94;99250.91;4452331;32;34439;-79
2022/05/17 06:11:01;;;;;;;9.32;5.57;;;;;;;22.06;57.82;99239.41;4454535;32;34166;-79
2022/05/17 06:13:29;;;;;;;9.00;5.80;;;;;;;22.33;56.98;99244.00;4453811;32;33917;-79
2022/05/17 06:15:57;;;;;;;13.02;5.93;;;;;;;22.49;56.34;99241.28;4442823;32;36140;-74
2022/05/17 06:18:26;;;;;;;8.52;4.87;;;;;;;22.45;56.86;99250.38;4465310;32;34527;-82
2022/05/17 06:20:55;;;;;;;12.27;6.07;;;;;;;22.42;55.71;99243.44;4447246;32;33736;-80
2022/05/17 06:23:25;;;;;;;10.25;5.53;;;;;;;22.05;58.10;99245.63;4469918;32;33970;-77
2022/05/17 06:25:54;;;;;;;7.50;4.95;;;;;;;21.94;58.10;99256.03;4455599;32;35981;-82
2022/05/17 06:28:22;;;;;;;9.32;5.15;;;;;;;22.23;58.06;99245.47;4440883;32;34129;-81
2022/05/17 06:30:50;;;;;;;8.27;4.90;;;;;;;22.37;57.76;99250.81;4454041;32;34328;-77
2022/05/17 06:33:29;;;;;;;8.35;5.20;;;;;;;22.79;57.36;99249.13;4454282;32;34874;-74
2022/05/17 06:36:03;;;;;;;13.48;5.40;;;;;;;22.97;58.11;99256.88;4454565;32;34637;-77
2022/05/17 06:38:34;;;;;;;8.07;4.97;;;;;;;23.25;57.76;99256.84;4454310;32;34462;-80
2022/05/17 06:41:09;;;;;;;11.77;4.95;;;;;;;23.75;54.61;99249.16;4454210;32;34289;-74
2022/05/17 06:43:40;;;;;;;7.60;4.53;;;;;;;23.36;55.83;99257.97;4441248;32;34057;-76
2022/05/17 06:46:10;;;;;;;7.70;5.15;;;;;;;23.58;54.67;99257.44;4440278;32;35929;-77
2022/05/17 06:48:57;;;;;;;6.90;4.20;;;;;;;23.82;54.61;99262.94;4442199;32;34947;-81
2022/05/17 06:51:31;;;;;;;6.87;4.10;;;;;;;23.99;54.79;99261.81;4454175;32;33464;-78
2022/05/17 06:54:13;;;;;;;5.65;4.15;;;;;;;23.93;54.06;99259.56;4452292;32;34738;-82
2022/05/17 06:56:43;;;;;;;8.45;3.90;;;;;;;24.15;54.27;99251.81;4469520;32;36028;-80
2022/05/17 06:59:15;;;;;;;8.35;5.20;;;;;;;23.86;54.82;99256.47;4469464;32;34543;-75
2022/05/17 07:01:57;;;;;;;5.43;3.83;;;;;;;24.27;54.97;99254.63;4431592;32;32487;-76
2022/05/17 07:04:30;;;;;;;7.70;4.12;;;;;;;24.23;53.46;99251.31;4469490;32;34254;-77
2022/05/17 07:07:05;;;;;;;6.28;3.92;;;;;;;23.79;53.27;99252.47;4456077;32;35999;-77
2022/05/17 07:09:36;;;;;;;6.37;4.40;;;;;;;23.25;55.12;99261.31;4468640;32;35131;-79
2022/05/17 07:15:01;;;;;;;9.18;4.47;;;;;;;23.28;54.49;99261.97;4453720;32;33813;-72
2022/05/17 07:17:37;;;;;;;6.32;3.78;;;;;;;23.10;54.60;99263.13;4453578;32;35207;-73
2022/05/17 07:20:13;;;;;;;;;;;;;;;22.42;55.63;99262.00;4441145;32;34260;-79
2022/05/17 07:22:44;;;;;;;10.23;4.15;;;;;;;22.67;55.94;99257.84;4453439;32;33489;-76
2022/05/17 07:25:12;;;;;;;5.75;3.72;;;;;;;22.38;57.17;99263.16;4453096;32;33831;-79
2022/05/17 07:27:50;;;;;;;6.47;4.15;;;;;;;22.63;56.49;99265.16;4462695;32;33925;-81
2022/05/17 07:30:23;;;;;;;7.40;4.50;;;;;;;22.31;57.67;99269.78;4468973;32;35353;-77
2022/05/17 07:32:57;;;;;;;6.35;3.92;;;;;;;22.99;56.94;99266.44;4468332;32;33525;-72
2022/05/17 07:35:34;;;;;;;6.03;3.95;;;;;;;23.08;57.21;99265.03;4468707;32;34783;-76
2022/05/17 07:38:07;;;;;;;8.18;4.30;;;;;;;23.25;57.55;99270.13;4470662;32;35064;-73
2022/05/17 07:40:51;;;;;;;6.97;4.05;;;;;;;23.83;55.78;99277.94;4470591;32;34518;-72
2022/05/17 07:43:43;;;;;;;7.68;4.37;;;;;;;23.85;56.50;99276.87;4458642;32;33420;-72
2022/05/17 07:46:25;;;;;;;7.85;3.78;;;;;;;23.78;54.88;99280.03;4457727;32;33975;-72
2022/05/17 07:48:56;;;;;;;;;;;;;;;23.39;55.40;99271.06;4444537;32;35950;-78
2022/05/17 07:51:30;;;;;;;6.32;3.53;;;;;;;23.09;57.09;99277.37;4470700;32;34651;-83
2022/05/17 07:54:02;;;;;;;9.05;4.50;;;;;;;22.90;57.13;99270.53;4470457;32;33423;-70
2022/05/17 07:56:38;;;;;;;6.47;4.15;;;;;;;22.71;58.23;99273.50;4457464;32;34809;-70
2022/05/17 07:59:10;;;;;;;6.62;4.07;;;;;;;22.75;58.08;99274.16;4470403;32;34903;-74
2022/05/17 08:01:46;;;;;;;6.97;4.35;;;;;;;22.86;58.28;99284.97;4469778;32;34525;-88
2022/05/17 08:04:15;;;;;;;11.52;3.85;;;;;;;22.59;59.48;99286.66;4461313;32;33748;-72
2022/05/17 08:06:43;;;;;;;10.85;4.72;;;;;;;22.30;59.65;99290.13;4464582;32;34772;-70
2022/05/17 08:09:12;;;;;;;7.35;4.18;;;;;;;22.40;59.62;99282.47;4454367;32;35291;-75
2022/05/17 08:11:41;;;;;;;7.18;4.85;;;;;;;22.30;59.36;99289.28;4455969;32;34029;-69
2022/05/17 08:14:09;;;;;;;7.82;4.60;;;;;;;22.23;59.19;99287.91;4454138;32;33388;-69
2022/05/17 08:16:41;;;;;;;6.93;4.70;;;;;;;21.98;61.24;99277.91;4470571;32;32252;-69
2022/05/17 08:19:11;;;;;;;8.60;4.80;;;;;;;22.19;60.43;99292.56;4458252;32;35091;-72
2022/05/17 08:21:39;;;;;;;7.03;5.12;;;;;;;22.10;60.50;99295.75;4470209;32;34316;-79
2022/05/17 08:24:08;;;;;;;7.68;5.15;;;;;;;21.99;60.76;99300.81;4456841;32;34448;-85
2022/05/17 08:29:22;;;;;;;8.48;5.60;;;;;;;21.57;61.94;99308.53;4469334;32;35934;-72
2022/05/17 08:34:37;;;;;;;;;;;;;;;21.91;60.01;99311.88;4453988;32;33713;-71
2022/05/17 08:37:05;;;;;;;8.63;5.35;;;;;;;21.48;61.77;99317.00;4470723;32;34256;-70
2022/05/17 08:39:34;;;;;;;9.77;5.20;;;;;;;21.76;60.84;99317.13;4469452;32;34897;-70
2022/05/17 08:42:12;;;;;;;8.30;6.07;;;;;;;21.51;62.00;99316.81;4470636;32;34904;-68
2022/05/17 08:44:48;;;;;;;11.95;5.95;;;;;;;21.11;63.64;99321.66;4469173;32;33447;-69
2022/05/17 08:47:32;;;;;;;13.52;5.87;;;;;;;21.37;62.94;99328.13;4468484;32;33890;-76
2022/05/17 08:50:26;;;;;;;8.45;6.00;;;;;;;21.29;63.44;99327.72;4449032;32;35755;-69
2022/05/17 08:52:55;;;;;;;9.60;6.45;;;;;;;20.79;66.22;99326.88;4443567;32;33980;-69
2022/05/17 08:55:34;;;;;;;14.32;7.18;;;;;;;21.11;67.58;99337.53;4443018;32;34285;-69
2022/05/17 08:58:12;;;;;;;10.77;6.85;;;;;;;20.88;70.16;99339.63;4443759;32;32281;-69
2022/05/17 09:00:44;;;;;;;10.70;7.82;;;;;;;20.46;71.87;99332.97;4455599;32;34880;-70
2022/05/17 09:03:22;;;;;;;10.52;7.55;;;;;;;20.14;74.86;99335.47;4458511;32;34341;-86
2022/05/17 09:06:08;;;;;;;12.43;8.05;;;;;;;19.91;77.33;99333.09;4449061;32;33730;-70
2022/05/17 09:09:10;;;;;;;13.70;8.32;;;;;;;20.20;76.17;99337.78;4443959;32;33893;-69
2022/05/17 09:12:03;;;;;;;15.57;9.57;;;;;;;20.17;77.28;99331.78;4454109;32;35814;-69
2022/05/17 09:14:34;;;;;;;14.13;8.57;;;;;;;19.92;80.00;99330.37;4455100;32;34450;-74
2022/05/17 09:17:14;;;;;;;13.18;8.77;;;;;;;20.08;78.09;99333.09;4440914;32;33460;-70
2022/05/17 09:19:43;;;;;;;13.88;9.38;;;;;;;19.98;78.42;99335.38;4441321;32;34803;-70
2022/05/17 09:22:11;;;;;;;15.60;8.63;;;;;;;19.68;82.46;99329.78;4464972;32;35030;-70
2022/05/17 09:24:45;;;;;;;13.50;8.52;;;;;;;20.12;80.62;99334.69;4439727;32;35129;-70
2022/05/17 09:27:26;;;;;;;14.23;9.38;;;;;;;20.59;78.12;99323.44;4470230;32;33454;-70
2022/05/17 09:30:03;;;;;;;11.82;9.00;;;;;;;20.86;78.39;99320.31;4442036;32;33337;-71
2022/05/17 09:32:36;;;;;;;13.32;8.88;;;;;;;20.78;78.74;99328.66;4456243;32;35849;-70
2022/05/17 09:35:20;;;;;;;12.07;8.57;;;;;;;20.71;77.82;99321.13;4455168;32;34365;-70
2022/05/17 09:37:51;;;;;;;11.73;8.43;;;;;;;20.95;77.51;99322.47;4447917;32;33470;-70
2022/05/17 09:40:28;;;;;;;14.73;9.23;;;;;;;20.96;79.26;99321.50;4458003;32;34023;-70
2022/05/17 09:43:04;;;;;;;11.30;8.10;;;;;;;20.94;77.66;99315.44;4443594;32;35387;-70
2022/05/17 09:45:55;;;;;;;16.60;9.35;;;;;;;20.63;81.15;99318.91;4455085;32;34612;-70
2022/05/17 09:48:26;;;;;;;13.27;8.93;;;;;;;21.12;78.07;99310.09;4466344;32;33695;-70
2022/05/17 09:53:49;;;;;;;14.75;8.73;;;;;;;20.98;80.35;99311.72;4455727;32;35919;-72
2022/05/17 09:56:26;;;;;;;16.08;9.63;;;;;;;21.33;77.29;99303.59;4449883;32;34461;-70
2022/05/17 09:58:54;;;;;;;13.90;9.10;;;;;;;20.91;79.38;99307.69;4470345;32;33442;-70
2022/05/17 10:01:29;;;;;;;13.25;9.32;;;;;;;20.27;80.49;99311.88;4455002;32;34745;-70
2022/05/17 10:04:12;;;;;;;13.55;8.77;;;;;;;21.03;76.95;99311.44;4446065;32;34913;-70
2022/05/17 10:06:42;;;;;;;11.07;8.25;;;;;;;21.04;74.99;99304.38;4440021;32;34765;-70
2022/05/17 10:09:29;;;;;;;12.88;8.73;;;;;;;21.26;72.09;99306.69;4440595;32;33739;-70
2022/05/17 10:12:16;;;;;;;11.55;8.05;;;;;;;21.02;72.92;99297.38;4467527;32;33876;-71
2022/05/17 10:14:49;;;;;;;12.48;7.95;;;;;;;20.97;74.03;99310.00;4453158;32;35024;-70
2022/05/17 10:17:39;;;;;;;12.95;8.25;;;;;;;21.09;74.65;99299.66;4440949;32;35343;-70
2022/05/17 10:20:17;;;;;;;11.70;7.75;;;;;;;21.38;73.70;99300.72;4441606;32;33393;-70
2022/05/17 10:22:59;;;;;;;10.55;7.72;;;;;;;21.42;72.47;99301.41;4456401;32;34417;-70
2022/05/17 10:25:43;;;;;;;10.30;8.13;;;;;;;21.50;71.48;99299.22;4448700;32;188986;-70
2022/05/17 10:28:30;;;;;;;12.05;7.75;;;;;;;21.59;70.53;99298.69;4456496;32;34441;-70
2022/05/17 10:31:14;;;;;;;10.02;6.85;;;;;;;21.61;69.28;99298.59;4468627;32;34371;-70
2022/05/17 10:33:54;;;;;;;10.30;6.97;;;;;;;21.14;71.39;99297.63;4469837;32;33961;-70
2022/05/17 10:36:29;;;;;;;12.60;7.53;;;;;;;21.32;69.79;99309.88;4463322;32;35065;-70
2022/05/17 10:39:14;;;;;;;9.95;7.57;;;;;;;21.43;69.03;99297.81;4455951;32;34001;-70
2022/05/17 10:41:43;;;;;;;10.98;8.07;;;;;;;20.64;72.61;99305.56;4468666;32;33577;-70
2022/05/17 10:44:20;;;;;;;12.88;7.75;;;;;;;21.01;71.77;99300.94;4446671;32;33977;-70
2022/05/17 10:46:54;;;;;;;9.68;7.25;;;;;;;21.03;70.98;99303.50;4464946;32;35006;-70
2022/05/17 10:49:48;;;;;;;11.60;7.93;;;;;;;21.09;69.64;99299.66;4455918;32;34432;-70
2022/05/17 10:52:51;;;;;;;10.57;7.82;;;;;;;21.53;68.91;99304.31;4425552;32;34319;-69
2022/05/17 10:55:48;;;;;;;10.27;7.57;;;;;;;21.50;69.40;99309.81;4430292;32;33918;-70
2022/05/17 10:58:58;;;;;;;11.82;7.72;;;;;;;21.32;69.98;99301.06;4453376;32;34728;-70
2022/05/17 11:01:31;;;;;;;12.88;8.20;;;;;;;21.67;68.37;99298.25;4461841;32;34282;-69
2022/05/17 11:04:31;;;;;;;13.88;7.70;;;;;;;21.36;69.47;99298.16;4455884;32;33473;-69
2022/05/17 11:07:02;;;;;;;10.98;7.30;;;;;;;21.83;69.00;99298.22;4467991;32;33790;-69
2022/05/17 11:09:34;;;;;;;11.38;7.90;;;;;;;21.91;67.32;99293.31;4469482;32;34733;-70
2022/05/17 11:12:08;;;;;;;13.43;8.50;;;;;;;21.54;69.89;99290.97;4469325;32;35286;-70
2022/05/17 11:14:39;;;;;;;9.80;7.57;;;;;;;22.04;67.16;99288.16;4455231;32;34027;-70
2022/05/17 11:17:31;;;;;;;10.75;7.50;;;;;;;22.21;65.91;99287.16;4467967;32;34752;-69
2022/05/17 11:20:10;;;;;;;12.93;8.35;;;;;;;22.55;65.23;99287.81;4471373;32;35028;-70
2022/05/17 11:22:58;;;;;;;9.30;7.07;;;;;;;22.66;64.98;99293.28;4441237;32;35113;-70
2022/05/17 11:25:48;;;;;;;10.95;8.00;;;;;;;22.62;63.55;99289.12;4456675;32;34340;-70
2022/05/17 11:28:54;;;;;;;10.63;7.90;;;;;;;22.99;64.41;99284.19;4471455;32;33723;-69
2022/05/17 11:31:56;;;;;;;11.03;7.93;;;;;;;22.83;68.49;99286.94;4442964;32;36065;-69
2022/05/17 11:34:30;;;;;;;14.43;8.18;;;;;;;23.06;66.29;99280.22;4455745;32;34410;-70
2022/05/17 11:37:02;;;;;;;11.80;8.07;;;;;;;23.75;61.90;99283.72;4465913;32;34064;-69
2022/05/17 11:39:39;;;;;;;11.15;7.43;;;;;;;23.72;61.53;99268.00;4471343;32;34027;-70
2022/05/17 11:42:25;;;;;;;11.63;8.20;;;;;;;23.22;64.17;99270.31;4470058;32;34922;-70
2022/05/17 11:44:53;;;;;;;14.85;8.25;;;;;;;23.26;63.65;99263.88;4471231;32;35212;-70
2022/05/17 11:47:37;;;;;;;10.52;7.62;;;;;;;23.40;62.39;99264.78;4456071;32;33498;-70
2022/05/17 11:50:28;;;;;;;10.90;8.00;;;;;;;23.42;62.94;99258.41;4466830;32;34059;-82
2022/05/17 11:53:22;;;;;;;11.60;8.27;;;;;;;23.54;61.96;99255.91;4427039;32;35217;-70
2022/05/17 11:56:13;;;;;;;11.90;8.75;;;;;;;23.12;64.04;99255.94;4455892;32;35275;-70
2022/05/17 11:58:43;;;;;;;13.13;9.65;;;;;;;23.15;65.07;99255.72;4471141;32;33573;-69
2022/05/17 12:01:27;;;;;;;12.23;8.43;;;;;;;23.16;63.84;99257.44;4455646;32;34035;-70
2022/05/17 12:04:02;;;;;;;10.32;8.15;;;;;;;23.27;63.33;99252.28;4463377;32;35184;-85
2022/05/17 12:06:39;;;;;;;13.15;8.05;;;;;;;23.19;63.21;99256.38;4441616;32;34373;-70